Time;durP1;ratioP1;P1;durP2;ratioP2;P2;SDS_P1;SDS_P2;PMS_P1;PMS_P2;Temp;Humidity;BMP_temperature;BMP_pressure;BME280_temperature;BME280_humidity;BME280_pressure;Samples;Min_cycle;Max_cycle;Signal;HPM_P1;HPM_P2
2023/03/05 00:00:09;;;;;;;16.73;11.67;;;;;;;4.88;100.00;100494.59;4952244;28;20248;-63
2023/03/05 00:02:34;;;;;;;17.97;12.37;;;;;;;4.89;100.00;100495.41;4973443;28;20215;-61
2023/03/05 00:05:00;;;;;;;19.03;11.87;;;;;;;4.84;100.00;100490.47;4971472;28;20210;-61
2023/03/05 00:07:25;;;;;;;14.87;12.30;;;;;;;4.77;100.00;100496.56;4969325;28;20534;-61
2023/03/05 00:09:50;;;;;;;16.03;12.90;;;;;;;4.69;100.00;100491.66;4965858;28;20196;-64
2023/03/05 00:12:16;;;;;;;19.13;13.57;;;;;;;4.68;100.00;100501.00;4976688;28;20308;-62
2023/03/05 00:14:41;;;;;;;17.43;12.73;;;;;;;4.65;100.00;100490.91;4956343;28;20197;-61
2023/03/05 00:17:06;;;;;;;17.37;13.03;;;;;;;4.67;100.00;100493.41;4963133;28;20252;-61
2023/03/05 00:19:31;;;;;;;15.17;12.90;;;;;;;4.53;100.00;100493.72;4971602;28;20672;-62
2023/03/05 00:21:57;;;;;;;16.23;13.23;;;;;;;4.52;100.00;100487.78;4977053;28;20303;-62
2023/03/05 00:24:22;;;;;;;16.83;13.43;;;;;;;4.44;100.00;100496.47;4969945;28;20649;-61
2023/03/05 00:26:48;;;;;;;17.53;12.60;;;;;;;4.55;100.00;100484.31;4971887;28;20234;-64
2023/03/05 00:29:17;;;;;;;19.13;13.20;;;;;;;4.69;100.00;100487.41;4970473;28;20347;-62
2023/03/05 00:31:43;;;;;;;14.27;12.23;;;;;;;4.68;100.00;100483.16;4975654;28;20234;-63
2023/03/05 00:34:12;;;;;;;20.07;13.27;;;;;;;4.65;100.00;100478.16;4970888;28;20197;-63
2023/03/05 00:36:40;;;;;;;13.47;12.03;;;;;;;4.61;100.00;100476.53;4965455;28;20562;-63
2023/03/05 00:39:05;;;;;;;16.50;13.33;;;;;;;4.60;100.00;100484.22;4957990;28;20194;-62
2023/03/05 00:41:30;;;;;;;18.53;13.47;;;;;;;4.72;100.00;100478.00;4973757;28;20550;-62
2023/03/05 00:43:55;;;;;;;19.87;13.37;;;;;;;4.68;100.00;100480.63;4976685;28;20319;-62
2023/03/05 00:46:21;;;;;;;28.07;15.70;;;;;;;4.65;100.00;100474.75;4971208;28;20177;-62
2023/03/05 00:48:47;;;;;;;17.57;11.90;;;;;;;4.39;100.00;100470.28;4971368;28;20675;-62
2023/03/05 00:51:13;;;;;;;19.20;13.90;;;;;;;4.32;100.00;100472.97;4964745;28;20226;-63
2023/03/05 00:53:38;;;;;;;19.50;13.03;;;;;;;4.35;100.00;100470.38;4978639;28;20207;-63
2023/03/05 00:56:04;;;;;;;17.83;12.80;;;;;;;4.42;100.00;100465.94;4972024;28;20626;-63
2023/03/05 00:58:29;;;;;;;13.70;11.87;;;;;;;4.56;100.00;100457.97;4972817;28;20617;-62
2023/03/05 01:00:58;;;;;;;14.33;12.33;;;;;;;4.64;100.00;100458.63;4964452;28;20321;-63
2023/03/05 01:03:24;;;;;;;21.40;12.80;;;;;;;4.69;100.00;100456.00;4971117;28;20189;-63
2023/03/05 01:05:49;;;;;;;14.53;12.43;;;;;;;4.72;100.00;100458.44;4971141;28;20495;-63
2023/03/05 01:08:15;;;;;;;19.93;14.93;;;;;;;4.76;100.00;100449.84;4970627;28;20243;-63
2023/03/05 01:10:41;;;;;;;20.73;15.10;;;;;;;4.82;100.00;100459.06;4967156;28;20238;-63
2023/03/05 01:13:06;;;;;;;20.23;15.00;;;;;;;4.71;100.00;100455.94;4962959;28;20184;-62
2023/03/05 01:15:32;;;;;;;16.67;14.03;;;;;;;4.71;100.00;100456.78;4972153;28;20172;-62
2023/03/05 01:17:57;;;;;;;22.60;14.27;;;;;;;4.64;100.00;100451.00;4970640;28;20245;-62
2023/03/05 01:20:22;;;;;;;19.63;14.30;;;;;;;4.54;100.00;100452.09;4965388;28;20276;-61
2023/03/05 01:22:48;;;;;;;17.13;13.27;;;;;;;4.59;100.00;100444.31;4971238;28;20186;-62
2023/03/05 01:25:14;;;;;;;19.10;14.63;;;;;;;4.55;100.00;100438.47;4972124;28;20259;-62
2023/03/05 01:27:40;;;;;;;23.30;15.17;;;;;;;4.61;100.00;100435.75;4972106;28;20209;-62
2023/03/05 01:30:06;;;;;;;21.10;14.63;;;;;;;4.56;100.00;100440.16;4959716;28;20301;-62
2023/03/05 01:32:33;;;;;;;17.50;13.37;;;;;;;4.63;100.00;100433.22;4960828;28;20192;-62
2023/03/05 01:35:00;;;;;;;20.57;13.50;;;;;;;4.55;100.00;100435.09;4971029;28;20188;-63
2023/03/05 01:37:25;;;;;;;18.97;13.67;;;;;;;4.56;100.00;100431.69;4970491;28;20183;-62
2023/03/05 01:39:50;;;;;;;16.23;12.83;;;;;;;4.64;100.00;100434.84;4970576;28;20192;-63
2023/03/05 01:42:18;;;;;;;19.20;14.03;;;;;;;4.50;100.00;100436.06;4977571;28;20228;-62
2023/03/05 01:44:59;;;;;;;18.47;13.27;;;;;;;4.47;100.00;100431.00;4971001;28;20647;-61
2023/03/05 01:47:24;;;;;;;22.23;13.33;;;;;;;4.58;100.00;100424.84;4971897;28;20188;-62
2023/03/05 01:49:50;;;;;;;16.37;12.90;;;;;;;4.55;100.00;100430.81;4970974;28;20308;-66
2023/03/05 01:52:19;;;;;;;16.63;12.03;;;;;;;4.52;100.00;100426.63;4978100;28;20227;-62
2023/03/05 01:54:48;;;;;;;23.33;14.07;;;;;;;4.51;100.00;100419.91;4976535;28;20196;-63
2023/03/05 01:57:45;;;;;;;21.03;12.47;;;;;;;4.55;100.00;100423.19;4974001;28;20544;-62
2023/03/05 02:00:38;;;;;;;18.30;12.90;;;;;;;4.50;100.00;100412.25;4965223;28;20214;-63
2023/03/05 02:03:07;;;;;;;18.10;12.10;;;;;;;4.59;100.00;100419.69;4968498;28;20184;-62
2023/03/05 02:05:35;;;;;;;17.90;11.70;;;;;;;4.53;100.00;100407.94;4973840;28;20179;-62
2023/03/05 02:08:03;;;;;;;20.13;12.40;;;;;;;4.57;100.00;100407.88;4966612;28;20197;-62
2023/03/05 02:10:32;;;;;;;18.13;11.90;;;;;;;4.49;100.00;100408.03;4968686;28;20278;-62
2023/03/05 02:13:03;;;;;;;21.20;12.97;;;;;;;4.44;100.00;100403.09;4974242;28;20184;-61
2023/03/05 02:15:28;;;;;;;18.67;12.00;;;;;;;4.47;100.00;100397.06;4973928;28;20216;-61
2023/03/05 02:17:54;;;;;;;16.30;11.70;;;;;;;4.44;100.00;100397.13;4974504;28;20319;-62
2023/03/05 02:20:26;;;;;;;18.53;12.20;;;;;;;4.41;100.00;100389.56;4967868;28;20264;-63
2023/03/05 02:22:51;;;;;;;16.43;11.60;;;;;;;4.46;100.00;100387.75;4974206;28;20550;-62
2023/03/05 02:25:24;;;;;;;19.37;12.60;;;;;;;4.47;100.00;100386.88;4973986;28;20176;-61
2023/03/05 02:27:55;;;;;;;15.90;11.30;;;;;;;4.50;100.00;100382.56;4974626;28;20693;-63
2023/03/05 02:30:21;;;;;;;18.73;12.43;;;;;;;4.62;100.00;100380.56;4970898;28;20203;-62
2023/03/05 02:32:46;;;;;;;20.10;13.03;;;;;;;4.60;100.00;100378.06;4974003;28;20651;-62
2023/03/05 02:35:12;;;;;;;22.03;13.67;;;;;;;4.56;100.00;100368.81;4974068;28;20581;-63
2023/03/05 02:37:37;;;;;;;18.33;12.83;;;;;;;4.49;100.00;100367.28;4974666;28;20553;-63
2023/03/05 02:40:03;;;;;;;18.70;13.17;;;;;;;4.50;100.00;100371.50;4951543;28;20207;-63
2023/03/05 02:42:32;;;;;;;23.77;13.80;;;;;;;4.44;100.00;100374.19;4973041;28;20218;-61
2023/03/05 02:44:59;;;;;;;15.17;13.00;;;;;;;4.49;100.00;100365.59;4975446;28;20284;-62
2023/03/05 02:47:24;;;;;;;18.70;12.90;;;;;;;4.50;100.00;100367.25;4973151;28;20185;-61
2023/03/05 02:49:49;;;;;;;19.73;13.10;;;;;;;4.29;100.00;100366.09;4975392;28;20214;-62
2023/03/05 02:52:14;;;;;;;21.70;13.70;;;;;;;4.42;100.00;100363.25;4979813;28;20223;-62
2023/03/05 02:54:40;;;;;;;19.33;13.60;;;;;;;4.38;100.00;100357.38;4973664;28;20615;-62
2023/03/05 02:57:05;;;;;;;20.50;13.97;;;;;;;4.43;100.00;100349.59;4974176;28;20283;-62
2023/03/05 02:59:30;;;;;;;17.13;12.93;;;;;;;4.42;100.00;100358.16;4972390;28;20539;-62
2023/03/05 03:01:55;;;;;;;17.10;13.80;;;;;;;4.49;100.00;100354.53;4978701;28;20240;-63
2023/03/05 03:04:21;;;;;;;17.40;13.80;;;;;;;4.45;100.00;100350.41;4975547;28;20217;-63
2023/03/05 03:06:46;;;;;;;18.73;13.53;;;;;;;4.40;100.00;100350.53;4972784;28;20221;-62
2023/03/05 03:09:14;;;;;;;19.67;13.70;;;;;;;4.35;100.00;100350.66;4974654;28;20190;-62
2023/03/05 03:11:39;;;;;;;19.23;12.70;;;;;;;4.36;100.00;100348.94;4976733;28;20245;-62
2023/03/05 03:14:04;;;;;;;16.40;12.03;;;;;;;4.38;100.00;100342.09;4977354;28;20177;-62
2023/03/05 03:16:30;;;;;;;15.03;11.60;;;;;;;4.27;100.00;100347.44;4974058;28;20547;-62
2023/03/05 03:18:55;;;;;;;18.97;12.50;;;;;;;4.30;100.00;100347.34;4974648;28;20231;-61
2023/03/05 03:21:23;;;;;;;19.30;11.50;;;;;;;4.16;100.00;100340.06;4974470;28;20246;-62
2023/03/05 03:23:49;;;;;;;18.70;11.83;;;;;;;4.06;100.00;100345.41;4973010;28;20690;-62
2023/03/05 03:26:14;;;;;;;16.17;11.93;;;;;;;4.11;100.00;100346.16;4972301;28;20184;-62
2023/03/05 03:28:39;;;;;;;21.50;12.37;;;;;;;4.16;100.00;100339.25;4974132;28;20237;-62
2023/03/05 03:31:05;;;;;;;17.20;12.03;;;;;;;4.18;100.00;100338.31;4971930;28;20230;-62
2023/03/05 03:33:30;;;;;;;17.03;12.30;;;;;;;4.29;100.00;100327.88;4981102;28;20199;-62
2023/03/05 03:35:56;;;;;;;20.97;11.93;;;;;;;4.14;100.00;100334.19;4973187;28;20263;-62
2023/03/05 03:38:21;;;;;;;17.67;12.30;;;;;;;4.25;100.00;100326.28;4973847;28;20687;-62
2023/03/05 03:40:46;;;;;;;21.60;12.73;;;;;;;4.33;100.00;100328.66;4965387;28;20250;-62
2023/03/05 03:43:11;;;;;;;22.43;13.07;;;;;;;4.33;100.00;100326.94;4983584;28;20256;-63
2023/03/05 03:45:41;;;;;;;18.47;13.17;;;;;;;4.31;100.00;100321.03;4973716;28;20193;-64
2023/03/05 03:48:06;;;;;;;30.00;14.10;;;;;;;4.44;100.00;100318.16;4973078;28;20184;-62
2023/03/05 03:50:32;;;;;;;19.53;13.03;;;;;;;4.44;100.00;100316.47;4967357;28;20238;-63
2023/03/05 03:52:57;;;;;;;16.77;12.20;;;;;;;4.41;100.00;100305.53;4984799;28;20327;-62
2023/03/05 03:55:22;;;;;;;18.77;13.57;;;;;;;4.40;100.00;100316.59;4973494;28;20205;-62
2023/03/05 03:57:47;;;;;;;17.73;12.83;;;;;;;4.44;100.00;100311.38;4971905;28;20536;-61
2023/03/05 04:00:13;;;;;;;17.07;12.13;;;;;;;4.47;100.00;100310.47;4954813;28;20207;-62
2023/03/05 04:02:38;;;;;;;19.90;12.73;;;;;;;4.44;100.00;100310.53;4987024;28;20243;-62
2023/03/05 04:05:04;;;;;;;25.17;14.73;;;;;;;4.40;100.00;100308.94;4973362;28;20278;-62
2023/03/05 04:07:30;;;;;;;24.00;14.00;;;;;;;4.36;100.00;100306.47;4959671;28;20184;-62
2023/03/05 04:09:55;;;;;;;20.87;14.13;;;;;;;4.32;100.00;100306.59;4971693;28;20193;-63
2023/03/05 04:12:20;;;;;;;20.67;14.20;;;;;;;4.29;100.00;100299.88;4978489;28;20621;-62
2023/03/05 04:14:47;;;;;;;21.63;15.33;;;;;;;4.28;100.00;100304.97;4972736;28;20196;-62
2023/03/05 04:17:14;;;;;;;24.10;15.67;;;;;;;4.26;100.00;100312.66;4955877;28;20240;-62
2023/03/05 04:19:40;;;;;;;22.57;15.00;;;;;;;4.23;100.00;100309.34;4966576;28;20184;-62
2023/03/05 04:22:10;;;;;;;24.20;15.83;;;;;;;4.16;100.00;100306.97;4976169;28;20673;-62
2023/03/05 04:24:36;;;;;;;21.33;16.17;;;;;;;4.14;100.00;100307.88;4971737;28;20607;-61
2023/03/05 04:27:01;;;;;;;21.87;14.97;;;;;;;3.96;100.00;100306.63;4971677;28;20231;-62
2023/03/05 04:29:27;;;;;;;22.67;15.00;;;;;;;3.99;100.00;100307.38;4973055;28;20216;-62
2023/03/05 04:31:52;;;;;;;22.13;15.30;;;;;;;4.02;100.00;100303.94;4976532;28;20900;-62
2023/03/05 04:34:17;;;;;;;20.80;14.43;;;;;;;3.94;100.00;100306.66;4971768;28;20674;-62
2023/03/05 04:36:43;;;;;;;22.90;14.63;;;;;;;3.96;100.00;100302.38;4972538;28;20243;-61
2023/03/05 04:39:08;;;;;;;22.97;15.07;;;;;;;3.92;100.00;100298.22;4972822;28;20318;-63
2023/03/05 04:41:33;;;;;;;21.97;14.53;;;;;;;3.94;100.00;100303.28;4964409;28;20659;-62
2023/03/05 04:43:59;;;;;;;24.70;15.67;;;;;;;4.03;100.00;100303.91;4976448;28;20200;-63
2023/03/05 04:46:24;;;;;;;23.47;14.33;;;;;;;4.04;100.00;100299.63;4971111;28;20194;-62
2023/03/05 04:48:49;;;;;;;20.83;15.30;;;;;;;3.96;100.00;100304.91;4973200;28;20187;-62
2023/03/05 04:51:14;;;;;;;24.47;15.90;;;;;;;3.88;100.00;100307.66;4971915;28;20237;-62
2023/03/05 04:53:40;;;;;;;22.17;15.33;;;;;;;3.93;100.00;100306.69;4971304;28;20183;-62
2023/03/05 04:56:05;;;;;;;24.23;15.43;;;;;;;3.64;100.00;100305.66;4972113;28;20717;-62
2023/03/05 04:58:31;;;;;;;22.73;15.27;;;;;;;3.72;100.00;100302.06;4972847;28;20184;-62
2023/03/05 05:01:04;;;;;;;20.83;15.23;;;;;;;3.70;100.00;100300.44;4969503;28;20228;-62
2023/03/05 05:03:29;;;;;;;22.47;16.17;;;;;;;3.77;100.00;100299.44;4958747;28;20180;-64
2023/03/05 05:05:56;;;;;;;26.47;15.50;;;;;;;3.74;100.00;100296.13;4970739;28;20183;-64
2023/03/05 05:08:21;;;;;;;25.07;16.10;;;;;;;3.70;100.00;100287.72;4971955;28;20243;-62
2023/03/05 05:11:01;;;;;;;22.73;14.67;;;;;;;3.69;100.00;100286.03;4968291;28;20223;-62
2023/03/05 05:13:27;;;;;;;21.47;14.80;;;;;;;3.78;100.00;100292.63;4962339;28;20184;-62
2023/03/05 05:15:52;;;;;;;24.27;15.23;;;;;;;3.78;100.00;100283.25;4970540;28;20636;-61
2023/03/05 05:18:18;;;;;;;21.40;15.20;;;;;;;3.79;100.00;100290.03;4972152;28;20236;-62
2023/03/05 05:20:43;;;;;;;22.63;13.73;;;;;;;3.74;100.00;100281.66;4964499;28;20226;-62
2023/03/05 05:23:09;;;;;;;19.53;14.37;;;;;;;3.75;100.00;100278.25;4982203;28;20184;-62
2023/03/05 05:25:34;;;;;;;21.40;14.03;;;;;;;3.71;100.00;100284.31;4971244;28;20199;-63
2023/03/05 05:27:59;;;;;;;23.17;13.77;;;;;;;3.77;100.00;100280.75;4974430;28;20180;-64
2023/03/05 05:30:24;;;;;;;18.43;13.23;;;;;;;3.66;100.00;100279.31;4969366;28;20239;-63
2023/03/05 05:32:50;;;;;;;18.33;10.80;;;;;;;3.43;100.00;100279.00;4988202;28;20188;-62
2023/03/05 05:35:15;;;;;;;15.43;10.40;;;;;;;3.60;100.00;100273.50;4976225;28;20183;-63
2023/03/05 05:37:40;;;;;;;16.63;9.70;;;;;;;3.59;100.00;100274.41;4975805;28;20180;-62
2023/03/05 05:40:07;;;;;;;12.97;7.63;;;;;;;3.54;100.00;100277.88;4965170;28;20183;-62
2023/03/05 05:42:33;;;;;;;11.30;8.03;;;;;;;3.63;100.00;100276.00;4990218;28;20184;-62
2023/03/05 05:44:58;;;;;;;16.53;10.50;;;;;;;3.67;100.00;100270.81;4967932;28;20600;-62
2023/03/05 05:47:24;;;;;;;16.10;9.80;;;;;;;3.70;100.00;100275.00;4957972;28;20196;-62
2023/03/05 05:49:50;;;;;;;16.83;10.40;;;;;;;3.79;100.00;100268.84;4970212;28;20197;-63
2023/03/05 05:52:15;;;;;;;18.47;12.20;;;;;;;3.80;100.00;100265.44;4963651;28;20231;-62
2023/03/05 05:54:40;;;;;;;23.90;12.20;;;;;;;3.84;100.00;100275.47;4974891;28;20176;-62
2023/03/05 05:57:06;;;;;;;16.80;11.77;;;;;;;3.79;100.00;100271.38;4974327;28;20644;-62
2023/03/05 05:59:31;;;;;;;17.53;10.83;;;;;;;3.77;100.00;100275.66;4976299;28;20699;-61
2023/03/05 06:01:57;;;;;;;21.80;12.07;;;;;;;3.79;100.00;100271.38;4979813;28;20250;-62
2023/03/05 06:04:22;;;;;;;18.77;11.20;;;;;;;3.79;100.00;100269.66;4974361;28;20190;-63
2023/03/05 06:06:47;;;;;;;14.97;12.30;;;;;;;3.79;100.00;100263.75;4975266;28;20211;-62
2023/03/05 06:09:13;;;;;;;18.77;11.20;;;;;;;3.75;100.00;100259.63;4975694;28;20192;-62
2023/03/05 06:11:38;;;;;;;16.57;10.33;;;;;;;3.79;100.00;100263.75;4977566;28;20243;-62
2023/03/05 06:14:04;;;;;;;21.13;10.87;;;;;;;3.75;100.00;100272.34;4978831;28;20194;-62
2023/03/05 06:16:29;;;;;;;17.97;10.00;;;;;;;3.72;100.00;100270.69;4974952;28;20644;-62
2023/03/05 06:18:55;;;;;;;19.97;9.90;;;;;;;3.65;100.00;100264.91;4975391;28;20652;-63
2023/03/05 06:21:21;;;;;;;13.03;8.53;;;;;;;3.64;100.00;100263.22;4975650;28;20945;-63
2023/03/05 06:23:47;;;;;;;13.87;8.17;;;;;;;3.68;100.00;100264.84;4974473;28;20675;-62
2023/03/05 06:26:15;;;;;;;12.43;8.80;;;;;;;3.67;100.00;100267.41;4957439;28;20263;-62
2023/03/05 06:28:41;;;;;;;14.67;10.17;;;;;;;3.68;100.00;100256.38;4974027;28;20176;-62
2023/03/05 06:31:15;;;;;;;13.87;8.67;;;;;;;3.66;100.00;100256.41;4973135;28;20241;-64
2023/03/05 06:33:41;;;;;;;12.77;8.73;;;;;;;3.64;100.00;100252.25;4981154;28;20647;-62
2023/03/05 06:36:12;;;;;;;13.07;9.67;;;;;;;3.54;100.00;100257.53;4974557;28;20190;-62
2023/03/05 06:38:38;;;;;;;17.47;10.83;;;;;;;3.52;100.00;100261.81;4973551;28;20636;-62
2023/03/05 06:41:10;;;;;;;18.90;10.70;;;;;;;3.56;100.00;100254.97;4967009;28;20289;-62
2023/03/05 06:43:37;;;;;;;15.30;9.67;;;;;;;3.56;100.00;100262.59;4973913;28;20183;-62
2023/03/05 06:46:07;;;;;;;14.50;9.73;;;;;;;3.47;100.00;100263.63;4972833;28;20243;-61
2023/03/05 06:48:33;;;;;;;16.37;9.43;;;;;;;3.45;100.00;100264.53;4975270;28;20211;-62
2023/03/05 06:50:58;;;;;;;16.77;9.20;;;;;;;3.52;100.00;100268.59;4971981;28;20687;-62
2023/03/05 06:53:24;;;;;;;17.83;9.30;;;;;;;3.57;100.00;100265.97;4973810;28;20199;-61
2023/03/05 06:55:50;;;;;;;17.73;9.37;;;;;;;3.60;100.00;100270.97;4974723;28;20211;-62
2023/03/05 06:58:15;;;;;;;13.20;9.73;;;;;;;3.59;100.00;100266.78;4974860;28;20192;-62
2023/03/05 07:00:42;;;;;;;14.90;9.03;;;;;;;3.58;100.00;100263.38;4969420;28;20224;-62
2023/03/05 07:03:08;;;;;;;17.80;9.80;;;;;;;3.55;100.00;100268.56;4973707;28;20199;-62
2023/03/05 07:05:37;;;;;;;18.10;10.10;;;;;;;3.43;100.00;100272.19;4974942;28;20192;-62
2023/03/05 07:08:03;;;;;;;14.40;8.83;;;;;;;3.71;100.00;100264.78;4972716;28;20191;-63
2023/03/05 07:10:29;;;;;;;14.43;8.93;;;;;;;3.76;100.00;100266.34;4966213;28;20227;-62
2023/03/05 07:12:54;;;;;;;13.40;8.17;;;;;;;3.71;100.00;100266.50;4986427;28;20254;-62
2023/03/05 07:15:19;;;;;;;12.87;8.27;;;;;;;3.72;100.00;100265.59;4973039;28;20172;-62
2023/03/05 07:17:45;;;;;;;14.70;7.33;;;;;;;3.85;100.00;100256.81;4972819;28;20661;-63
2023/03/05 07:20:10;;;;;;;11.17;7.63;;;;;;;3.93;100.00;100259.19;4963906;28;20238;-63
2023/03/05 07:22:37;;;;;;;11.67;7.87;;;;;;;3.98;100.00;100262.44;4967499;28;20184;-62
2023/03/05 07:25:03;;;;;;;13.90;7.73;;;;;;;4.01;100.00;100261.53;4958965;28;20663;-62
2023/03/05 07:27:28;;;;;;;14.10;8.03;;;;;;;4.02;100.00;100260.66;4953569;28;20677;-62
2023/03/05 07:29:53;;;;;;;13.90;8.47;;;;;;;3.97;100.00;100253.13;4968610;28;20204;-63
2023/03/05 07:32:18;;;;;;;13.70;7.93;;;;;;;3.91;100.00;100260.06;4961854;28;20242;-64
2023/03/05 07:34:44;;;;;;;14.67;7.27;;;;;;;3.71;100.00;100259.69;4969686;28;20251;-64
2023/03/05 07:37:09;;;;;;;12.47;7.43;;;;;;;3.76;100.00;100262.13;4962593;28;20656;-64
2023/03/05 07:39:34;;;;;;;12.50;7.13;;;;;;;3.72;100.00;100258.81;4966191;28;20187;-63
2023/03/05 07:41:59;;;;;;;14.07;7.67;;;;;;;3.89;100.00;100267.75;4976310;28;20238;-63
2023/03/05 07:44:25;;;;;;;10.13;7.67;;;;;;;3.99;100.00;100259.00;4966760;28;20704;-62
2023/03/05 07:46:50;;;;;;;13.13;7.73;;;;;;;4.05;100.00;100258.03;4972391;28;20263;-64
2023/03/05 07:49:15;;;;;;;11.60;7.33;;;;;;;4.10;100.00;100255.38;4973233;28;20190;-63
2023/03/05 07:51:41;;;;;;;13.60;7.07;;;;;;;4.09;100.00;100254.53;4976002;28;20266;-64
2023/03/05 07:54:06;;;;;;;9.70;6.83;;;;;;;4.09;100.00;100254.53;4976148;28;20211;-62
2023/03/05 07:56:34;;;;;;;15.63;6.27;;;;;;;4.19;100.00;100257.66;4973408;28;20184;-61
2023/03/05 07:59:01;;;;;;;9.83;5.87;;;;;;;4.10;100.00;100257.91;4971530;28;20625;-62
2023/03/05 08:01:28;;;;;;;11.63;6.20;;;;;;;4.11;100.00;100249.41;4954112;28;20270;-62
2023/03/05 08:03:53;;;;;;;11.83;6.50;;;;;;;4.19;100.00;100247.47;4970488;28;20184;-62
2023/03/05 08:06:18;;;;;;;10.23;5.83;;;;;;;4.27;100.00;100255.78;4973151;28;20178;-62
2023/03/05 08:08:44;;;;;;;10.93;5.90;;;;;;;4.24;100.00;100252.47;4973502;28;20950;-62
2023/03/05 08:11:13;;;;;;;8.70;5.50;;;;;;;4.27;100.00;100252.41;4971928;28;20275;-62
2023/03/05 08:13:38;;;;;;;10.80;5.63;;;;;;;4.36;100.00;100249.59;4971927;28;20672;-63
2023/03/05 08:16:11;;;;;;;12.80;6.47;;;;;;;4.45;100.00;100246.81;4964725;28;20270;-62
2023/03/05 08:18:36;;;;;;;8.63;5.77;;;;;;;4.50;100.00;100255.19;4971812;28;20227;-63
2023/03/05 08:21:01;;;;;;;10.63;6.47;;;;;;;4.49;100.00;100238.22;4971256;28;20239;-62
2023/03/05 08:23:27;;;;;;;9.20;5.93;;;;;;;4.57;100.00;100240.53;4980803;28;20180;-62
2023/03/05 08:25:53;;;;;;;10.40;5.50;;;;;;;4.33;100.00;100242.88;4972567;28;20290;-63
2023/03/05 08:28:18;;;;;;;8.10;5.80;;;;;;;4.40;100.00;100237.63;4973160;28;20189;-62
2023/03/05 08:30:45;;;;;;;8.23;5.50;;;;;;;3.99;100.00;100238.63;4968508;28;20237;-62
2023/03/05 08:33:10;;;;;;;9.03;5.37;;;;;;;3.87;100.00;100232.16;4971859;28;20188;-63
2023/03/05 08:35:37;;;;;;;9.10;5.80;;;;;;;3.92;100.00;100219.31;4973077;28;20255;-62
2023/03/05 08:38:03;;;;;;;11.57;6.97;;;;;;;4.00;100.00;100226.75;4971168;28;20220;-62
2023/03/05 08:40:28;;;;;;;11.40;6.27;;;;;;;4.24;100.00;100220.19;4964606;28;20246;-63
2023/03/05 08:42:54;;;;;;;9.83;5.63;;;;;;;4.31;100.00;100224.25;4984368;28;20191;-62
2023/03/05 08:45:19;;;;;;;13.33;5.57;;;;;;;4.07;100.00;100223.19;4972947;28;20642;-61
2023/03/05 08:47:44;;;;;;;10.10;6.73;;;;;;;4.09;100.00;100223.97;4971455;28;20632;-61
2023/03/05 08:50:10;;;;;;;9.87;5.80;;;;;;;4.42;100.00;100223.16;4963768;28;20189;-61
2023/03/05 08:52:36;;;;;;;9.90;5.90;;;;;;;4.39;100.00;100225.75;4982168;28;20257;-61
2023/03/05 08:55:01;;;;;;;7.63;5.53;;;;;;;4.48;100.00;100223.81;4984645;28;20194;-62
2023/03/05 08:57:26;;;;;;;9.73;6.00;;;;;;;4.56;100.00;100226.13;4971164;28;20173;-62
2023/03/05 08:59:51;;;;;;;11.30;6.50;;;;;;;4.69;100.00;100216.44;4972229;28;20260;-62
2023/03/05 09:02:17;;;;;;;9.50;6.27;;;;;;;4.79;100.00;100217.03;4962306;28;20543;-62
2023/03/05 09:04:42;;;;;;;12.60;7.33;;;;;;;4.87;100.00;100209.97;4971333;28;20275;-61
2023/03/05 09:07:07;;;;;;;11.57;6.27;;;;;;;4.95;100.00;100218.25;4970701;28;20193;-62
2023/03/05 09:09:33;;;;;;;11.40;6.20;;;;;;;4.58;100.00;100216.75;4972718;28;20269;-62
2023/03/05 09:12:00;;;;;;;8.83;6.00;;;;;;;4.58;100.00;100218.47;4964018;28;20311;-61
2023/03/05 09:14:27;;;;;;;9.97;6.73;;;;;;;4.85;100.00;100206.66;4969605;28;20188;-61
2023/03/05 09:16:52;;;;;;;10.33;6.83;;;;;;;4.65;100.00;100214.84;4970847;28;20190;-61
2023/03/05 09:19:18;;;;;;;10.87;6.33;;;;;;;4.64;100.00;100213.16;4971212;28;20196;-61
2023/03/05 09:21:43;;;;;;;9.40;6.60;;;;;;;4.69;100.00;100209.63;4970500;28;20686;-61
2023/03/05 09:24:08;;;;;;;11.47;6.90;;;;;;;4.70;100.00;100215.53;4974684;28;20349;-61
2023/03/05 09:26:34;;;;;;;10.33;7.50;;;;;;;4.94;100.00;100214.03;4971937;28;20200;-62
2023/03/05 09:28:59;;;;;;;10.93;7.37;;;;;;;5.08;100.00;100208.50;4972502;28;20272;-62
2023/03/05 09:31:24;;;;;;;9.27;6.40;;;;;;;4.99;100.00;100203.69;4972760;28;20225;-61
2023/03/05 09:33:50;;;;;;;11.53;6.73;;;;;;;4.96;100.00;100201.22;4976720;28;20190;-64
2023/03/05 09:36:27;;;;;;;8.93;6.23;;;;;;;4.67;100.00;100208.81;4971945;28;20225;-63
2023/03/05 09:38:53;;;;;;;10.43;6.63;;;;;;;4.61;100.00;100200.53;4970831;28;20190;-61
2023/03/05 09:41:33;;;;;;;11.47;6.07;;;;;;;4.30;100.00;100194.56;4972120;28;20284;-61
2023/03/05 09:44:31;;;;;;;9.80;6.67;;;;;;;4.17;100.00;100198.34;4978101;28;20219;-60
2023/03/05 09:47:34;;;;;;;10.20;6.03;;;;;;;4.16;100.00;100199.22;4970309;28;20223;-62
2023/03/05 09:50:03;;;;;;;14.10;6.77;;;;;;;4.31;100.00;100198.78;4972132;28;20560;-61
2023/03/05 09:52:41;;;;;;;9.10;6.20;;;;;;;4.64;100.00;100190.25;4945646;28;20227;-63
2023/03/05 09:55:17;;;;;;;14.37;6.37;;;;;;;4.80;100.00;100190.63;4972132;28;20600;-61
2023/03/05 09:57:53;;;;;;;10.10;6.27;;;;;;;4.89;100.00;100184.44;4970404;28;20269;-62
2023/03/05 10:00:27;;;;;;;10.90;5.97;;;;;;;4.73;100.00;100186.63;4964514;28;20184;-61
2023/03/05 10:02:57;;;;;;;10.57;6.63;;;;;;;4.79;100.00;100189.00;4970761;28;20182;-61
2023/03/05 10:05:44;;;;;;;9.37;6.07;;;;;;;4.87;100.00;100178.56;4970894;28;20253;-61
2023/03/05 10:08:11;;;;;;;10.20;6.50;;;;;;;5.00;100.00;100175.59;4984862;28;20181;-61
2023/03/05 10:10:41;;;;;;;9.20;6.60;;;;;;;5.23;100.00;100186.78;4964058;28;20620;-62
2023/03/05 10:13:23;;;;;;;9.53;6.53;;;;;;;5.03;100.00;100178.94;4971970;28;20240;-61
2023/03/05 10:16:16;;;;;;;11.63;6.47;;;;;;;4.89;100.00;100172.53;4964883;28;20622;-62
2023/03/05 10:19:13;;;;;;;11.17;6.60;;;;;;;5.11;100.00;100161.69;4975837;28;20724;-62
2023/03/05 10:21:56;;;;;;;10.87;6.37;;;;;;;5.20;100.00;100169.06;4967440;28;20234;-62
2023/03/05 10:24:42;;;;;;;9.53;6.43;;;;;;;5.45;100.00;100155.53;4974116;28;20186;-61
2023/03/05 10:27:12;;;;;;;10.17;6.30;;;;;;;5.28;100.00;100156.91;4975102;28;20242;-61
2023/03/05 10:29:53;;;;;;;9.03;6.33;;;;;;;5.13;100.00;100154.81;4974182;28;20550;-61
2023/03/05 10:32:21;;;;;;;10.70;7.20;;;;;;;5.34;100.00;100156.69;4980651;28;20241;-61
2023/03/05 10:35:04;;;;;;;8.53;5.90;;;;;;;5.71;99.81;100151.28;4973859;28;20186;-62
2023/03/05 10:37:38;;;;;;;10.30;6.20;;;;;;;5.73;97.89;100150.34;4973282;28;20517;-61
2023/03/05 10:40:14;;;;;;;13.17;6.73;;;;;;;5.84;98.34;100144.03;4965327;28;20719;-61
2023/03/05 10:42:57;;;;;;;9.80;6.40;;;;;;;5.76;97.43;100147.69;4973603;28;20282;-62
2023/03/05 10:45:48;;;;;;;9.83;6.37;;;;;;;5.82;95.03;100144.09;4975078;28;20647;-62
2023/03/05 10:48:39;;;;;;;7.13;5.07;;;;;;;5.90;95.81;100139.53;4976909;28;20645;-62
2023/03/05 10:51:47;;;;;;;13.03;6.07;;;;;;;5.64;96.40;100138.72;4954292;28;20227;-61
2023/03/05 10:54:30;;;;;;;9.97;6.20;;;;;;;5.68;98.02;100136.91;4953673;28;20192;-62
2023/03/05 10:57:19;;;;;;;11.43;6.40;;;;;;;5.84;96.93;100133.81;4937734;28;20207;-62
2023/03/05 10:59:51;;;;;;;8.87;5.03;;;;;;;5.81;98.35;100132.22;4937797;29;20199;-61
2023/03/05 11:02:17;;;;;;;7.67;5.97;;;;;;;5.87;100.00;100139.66;4909872;28;20308;-62
2023/03/05 11:04:43;;;;;;;8.57;5.53;;;;;;;5.85;100.00;100133.75;4928476;29;20201;-62
2023/03/05 11:07:14;;;;;;;7.10;5.40;;;;;;;5.73;100.00;100129.06;4953320;28;20191;-62
2023/03/05 11:10:00;;;;;;;7.73;5.10;;;;;;;6.08;100.00;100129.63;4955594;28;20196;-62
2023/03/05 11:12:31;;;;;;;7.93;4.67;;;;;;;6.01;98.00;100123.06;4962342;28;20773;-62
2023/03/05 11:15:21;;;;;;;4.73;3.93;;;;;;;6.01;97.39;100123.88;4942119;28;20275;-61
2023/03/05 11:18:03;;;;;;;6.60;3.97;;;;;;;5.87;98.23;100126.06;4936408;29;20232;-62